sensor_id;sensor_type;location;lat;lon;timestamp;P1;durP1;ratioP1;P2;durP2;ratioP2
77466;SDS011;66564;42.482;25.548;2023-12-07T00:01:08;21.92;;;9.15;;
77466;SDS011;66564;42.482;25.548;2023-12-07T00:03:34;20.83;;;9.90;;
77466;SDS011;66564;42.482;25.548;2023-12-07T00:05:59;25.23;;;10.63;;
77466;SDS011;66564;42.482;25.548;2023-12-07T00:08:25;20.65;;;11.07;;
77466;SDS011;66564;42.482;25.548;2023-12-07T00:10:50;21.27;;;10.02;;
77466;SDS011;66564;42.482;25.548;2023-12-07T00:13:16;18.63;;;9.90;;
77466;SDS011;66564;42.482;25.548;2023-12-07T00:15:42;19.25;;;10.75;;
77466;SDS011;66564;42.482;25.548;2023-12-07T00:18:07;21.77;;;11.65;;
77466;SDS011;66564;42.482;25.548;2023-12-07T00:20:33;23.92;;;12.20;;
77466;SDS011;66564;42.482;25.548;2023-12-07T00:22:59;30.10;;;11.55;;
77466;SDS011;66564;42.482;25.548;2023-12-07T00:25:24;26.85;;;11.88;;
77466;SDS011;66564;42.482;25.548;2023-12-07T00:27:49;28.42;;;12.23;;
77466;SDS011;66564;42.482;25.548;2023-12-07T00:30:15;29.05;;;13.50;;
77466;SDS011;66564;42.482;25.548;2023-12-07T00:32:41;29.73;;;13.38;;
77466;SDS011;66564;42.482;25.548;2023-12-07T00:35:08;29.63;;;13.38;;
77466;SDS011;66564;42.482;25.548;2023-12-07T00:37:35;30.85;;;13.02;;
77466;SDS011;66564;42.482;25.548;2023-12-07T00:40:03;31.40;;;13.32;;
77466;SDS011;66564;42.482;25.548;2023-12-07T00:42:29;28.08;;;12.93;;
77466;SDS011;66564;42.482;25.548;2023-12-07T00:44:55;31.40;;;14.35;;
77466;SDS011;66564;42.482;25.548;2023-12-07T00:47:21;26.15;;;11.80;;
77466;SDS011;66564;42.482;25.548;2023-12-07T00:49:47;29.63;;;12.63;;
77466;SDS011;66564;42.482;25.548;2023-12-07T00:52:12;22.23;;;11.23;;
77466;SDS011;66564;42.482;25.548;2023-12-07T00:54:38;25.38;;;11.95;;
77466;SDS011;66564;42.482;25.548;2023-12-07T00:57:04;28.90;;;12.10;;
77466;SDS011;66564;42.482;25.548;2023-12-07T00:59:30;27.95;;;11.38;;
77466;SDS011;66564;42.482;25.548;2023-12-07T01:02:05;26.27;;;11.77;;
77466;SDS011;66564;42.482;25.548;2023-12-07T01:04:31;26.15;;;12.48;;
77466;SDS011;66564;42.482;25.548;2023-12-07T01:06:57;31.50;;;14.40;;
77466;SDS011;66564;42.482;25.548;2023-12-07T01:09:23;30.73;;;13.05;;
77466;SDS011;66564;42.482;25.548;2023-12-07T01:11:49;33.08;;;13.20;;
77466;SDS011;66564;42.482;25.548;2023-12-07T01:14:15;27.90;;;13.35;;
77466;SDS011;66564;42.482;25.548;2023-12-07T01:16:40;28.27;;;12.27;;
77466;SDS011;66564;42.482;25.548;2023-12-07T01:19:07;28.52;;;12.88;;
77466;SDS011;66564;42.482;25.548;2023-12-07T01:21:32;29.98;;;13.68;;
77466;SDS011;66564;42.482;25.548;2023-12-07T01:23:58;27.75;;;12.77;;
77466;SDS011;66564;42.482;25.548;2023-12-07T01:26:24;25.60;;;12.23;;
77466;SDS011;66564;42.482;25.548;2023-12-07T01:28:49;26.48;;;13.45;;
77466;SDS011;66564;42.482;25.548;2023-12-07T01:31:15;22.23;;;12.20;;
77466;SDS011;66564;42.482;25.548;2023-12-07T01:33:42;21.70;;;11.50;;
77466;SDS011;66564;42.482;25.548;2023-12-07T01:36:07;28.83;;;13.68;;
77466;SDS011;66564;42.482;25.548;2023-12-07T01:38:33;26.88;;;12.55;;
77466;SDS011;66564;42.482;25.548;2023-12-07T01:40:59;26.52;;;11.20;;
77466;SDS011;66564;42.482;25.548;2023-12-07T01:43:24;23.10;;;11.20;;
77466;SDS011;66564;42.482;25.548;2023-12-07T01:45:50;26.80;;;11.18;;
77466;SDS011;66564;42.482;25.548;2023-12-07T01:48:19;21.55;;;10.20;;
77466;SDS011;66564;42.482;25.548;2023-12-07T01:50:46;19.08;;;9.27;;
77466;SDS011;66564;42.482;25.548;2023-12-07T01:53:11;20.15;;;10.02;;
77466;SDS011;66564;42.482;25.548;2023-12-07T01:55:37;24.98;;;12.27;;
77466;SDS011;66564;42.482;25.548;2023-12-07T01:58:04;21.20;;;11.52;;
77466;SDS011;66564;42.482;25.548;2023-12-07T02:00:31;24.55;;;13.38;;
77466;SDS011;66564;42.482;25.548;2023-12-07T02:02:59;24.52;;;12.02;;
77466;SDS011;66564;42.482;25.548;2023-12-07T02:05:29;46.63;;;13.40;;
77466;SDS011;66564;42.482;25.548;2023-12-07T02:07:54;23.15;;;11.68;;
77466;SDS011;66564;42.482;25.548;2023-12-07T02:10:20;22.42;;;11.93;;
77466;SDS011;66564;42.482;25.548;2023-12-07T02:12:46;26.50;;;14.00;;
77466;SDS011;66564;42.482;25.548;2023-12-07T02:15:12;28.52;;;11.98;;
77466;SDS011;66564;42.482;25.548;2023-12-07T02:17:44;20.40;;;10.38;;
77466;SDS011;66564;42.482;25.548;2023-12-07T02:20:13;25.80;;;11.68;;
77466;SDS011;66564;42.482;25.548;2023-12-07T02:22:47;22.67;;;11.98;;
77466;SDS011;66564;42.482;25.548;2023-12-07T02:25:18;21.20;;;12.18;;
77466;SDS011;66564;42.482;25.548;2023-12-07T02:27:44;31.48;;;13.48;;
77466;SDS011;66564;42.482;25.548;2023-12-07T02:30:13;27.17;;;13.45;;
77466;SDS011;66564;42.482;25.548;2023-12-07T02:32:41;39.40;;;17.17;;
77466;SDS011;66564;42.482;25.548;2023-12-07T02:35:08;29.48;;;12.55;;
77466;SDS011;66564;42.482;25.548;2023-12-07T02:37:50;29.10;;;11.75;;
77466;SDS011;66564;42.482;25.548;2023-12-07T02:40:18;22.88;;;11.73;;
77466;SDS011;66564;42.482;25.548;2023-12-07T02:42:45;23.20;;;11.85;;
77466;SDS011;66564;42.482;25.548;2023-12-07T02:45:12;18.30;;;9.77;;
77466;SDS011;66564;42.482;25.548;2023-12-07T02:47:38;20.70;;;11.32;;
77466;SDS011;66564;42.482;25.548;2023-12-07T02:50:04;19.33;;;8.25;;
77466;SDS011;66564;42.482;25.548;2023-12-07T02:52:31;14.05;;;7.40;;
77466;SDS011;66564;42.482;25.548;2023-12-07T02:54:57;22.17;;;10.13;;
77466;SDS011;66564;42.482;25.548;2023-12-07T02:57:22;23.08;;;12.27;;
77466;SDS011;66564;42.482;25.548;2023-12-07T02:59:47;27.95;;;12.73;;
77466;SDS011;66564;42.482;25.548;2023-12-07T03:02:14;30.75;;;14.40;;
77466;SDS011;66564;42.482;25.548;2023-12-07T03:04:39;26.10;;;11.48;;
77466;SDS011;66564;42.482;25.548;2023-12-07T03:07:04;23.95;;;11.93;;
77466;SDS011;66564;42.482;25.548;2023-12-07T03:09:30;23.45;;;11.50;;
77466;SDS011;66564;42.482;25.548;2023-12-07T03:11:55;25.55;;;12.82;;
77466;SDS011;66564;42.482;25.548;2023-12-07T03:14:21;29.65;;;13.02;;
77466;SDS011;66564;42.482;25.548;2023-12-07T03:16:47;24.10;;;12.68;;
77466;SDS011;66564;42.482;25.548;2023-12-07T03:19:12;29.50;;;11.40;;
77466;SDS011;66564;42.482;25.548;2023-12-07T03:21:39;20.60;;;10.57;;
77466;SDS011;66564;42.482;25.548;2023-12-07T03:24:06;25.02;;;10.23;;
77466;SDS011;66564;42.482;25.548;2023-12-07T03:26:35;21.52;;;9.27;;
77466;SDS011;66564;42.482;25.548;2023-12-07T03:29:02;22.02;;;11.05;;
77466;SDS011;66564;42.482;25.548;2023-12-07T03:31:28;19.35;;;9.82;;
77466;SDS011;66564;42.482;25.548;2023-12-07T03:33:54;20.45;;;9.60;;
77466;SDS011;66564;42.482;25.548;2023-12-07T03:36:20;19.65;;;8.43;;
77466;SDS011;66564;42.482;25.548;2023-12-07T03:38:47;16.10;;;7.68;;
77466;SDS011;66564;42.482;25.548;2023-12-07T03:41:12;17.10;;;8.25;;
77466;SDS011;66564;42.482;25.548;2023-12-07T03:43:38;20.02;;;8.32;;
77466;SDS011;66564;42.482;25.548;2023-12-07T03:46:04;17.38;;;8.00;;
77466;SDS011;66564;42.482;25.548;2023-12-07T03:48:30;17.15;;;8.13;;
77466;SDS011;66564;42.482;25.548;2023-12-07T03:50:55;17.08;;;8.27;;
77466;SDS011;66564;42.482;25.548;2023-12-07T03:53:21;19.67;;;9.13;;
77466;SDS011;66564;42.482;25.548;2023-12-07T03:55:47;20.65;;;9.45;;
77466;SDS011;66564;42.482;25.548;2023-12-07T03:58:12;21.25;;;8.73;;
77466;SDS011;66564;42.482;25.548;2023-12-07T04:00:38;20.42;;;10.48;;
77466;SDS011;66564;42.482;25.548;2023-12-07T04:03:04;18.55;;;10.60;;
77466;SDS011;66564;42.482;25.548;2023-12-07T04:05:30;20.05;;;11.30;;
77466;SDS011;66564;42.482;25.548;2023-12-07T04:07:55;19.00;;;9.25;;
77466;SDS011;66564;42.482;25.548;2023-12-07T04:10:21;19.80;;;9.23;;
77466;SDS011;66564;42.482;25.548;2023-12-07T04:12:46;17.80;;;8.80;;
77466;SDS011;66564;42.482;25.548;2023-12-07T04:15:12;20.10;;;9.55;;
77466;SDS011;66564;42.482;25.548;2023-12-07T04:17:37;16.08;;;8.23;;
77466;SDS011;66564;42.482;25.548;2023-12-07T04:20:03;17.25;;;9.00;;
77466;SDS011;66564;42.482;25.548;2023-12-07T04:22:30;20.38;;;9.73;;
77466;SDS011;66564;42.482;25.548;2023-12-07T04:24:55;16.75;;;8.82;;
77466;SDS011;66564;42.482;25.548;2023-12-07T04:27:20;22.45;;;10.40;;
77466;SDS011;66564;42.482;25.548;2023-12-07T04:29:46;21.83;;;10.07;;
77466;SDS011;66564;42.482;25.548;2023-12-07T04:32:11;17.33;;;8.77;;
77466;SDS011;66564;42.482;25.548;2023-12-07T04:34:37;16.38;;;8.68;;
77466;SDS011;66564;42.482;25.548;2023-12-07T04:37:03;23.23;;;9.75;;
77466;SDS011;66564;42.482;25.548;2023-12-07T04:39:28;17.38;;;8.50;;
77466;SDS011;66564;42.482;25.548;2023-12-07T04:41:54;17.80;;;8.35;;
77466;SDS011;66564;42.482;25.548;2023-12-07T04:44:20;28.00;;;8.45;;
77466;SDS011;66564;42.482;25.548;2023-12-07T04:46:46;11.45;;;6.05;;
77466;SDS011;66564;42.482;25.548;2023-12-07T04:49:12;12.25;;;5.95;;
77466;SDS011;66564;42.482;25.548;2023-12-07T04:51:38;10.32;;;6.15;;
77466;SDS011;66564;42.482;25.548;2023-12-07T04:54:03;12.02;;;5.70;;
77466;SDS011;66564;42.482;25.548;2023-12-07T04:56:29;7.65;;;4.80;;
77466;SDS011;66564;42.482;25.548;2023-12-07T04:58:54;11.82;;;5.20;;
77466;SDS011;66564;42.482;25.548;2023-12-07T05:01:20;10.10;;;4.70;;
77466;SDS011;66564;42.482;25.548;2023-12-07T05:03:45;6.50;;;3.72;;
77466;SDS011;66564;42.482;25.548;2023-12-07T05:06:11;5.55;;;3.25;;
77466;SDS011;66564;42.482;25.548;2023-12-07T05:08:37;7.10;;;3.58;;
77466;SDS011;66564;42.482;25.548;2023-12-07T05:11:04;5.40;;;2.80;;
77466;SDS011;66564;42.482;25.548;2023-12-07T05:13:30;5.57;;;3.22;;
77466;SDS011;66564;42.482;25.548;2023-12-07T05:15:55;6.03;;;3.22;;
77466;SDS011;66564;42.482;25.548;2023-12-07T05:18:21;4.80;;;3.20;;
77466;SDS011;66564;42.482;25.548;2023-12-07T05:20:46;13.60;;;3.50;;
77466;SDS011;66564;42.482;25.548;2023-12-07T05:23:12;5.22;;;3.15;;
77466;SDS011;66564;42.482;25.548;2023-12-07T05:25:37;4.18;;;2.50;;
77466;SDS011;66564;42.482;25.548;2023-12-07T05:28:03;4.55;;;2.95;;
77466;SDS011;66564;42.482;25.548;2023-12-07T05:30:29;4.53;;;3.50;;
77466;SDS011;66564;42.482;25.548;2023-12-07T05:32:55;4.80;;;3.10;;
77466;SDS011;66564;42.482;25.548;2023-12-07T05:35:20;4.28;;;3.10;;
77466;SDS011;66564;42.482;25.548;2023-12-07T05:37:46;5.93;;;2.90;;
77466;SDS011;66564;42.482;25.548;2023-12-07T05:40:11;8.30;;;3.42;;
77466;SDS011;66564;42.482;25.548;2023-12-07T05:42:37;5.53;;;3.47;;
77466;SDS011;66564;42.482;25.548;2023-12-07T05:45:03;5.07;;;3.30;;
77466;SDS011;66564;42.482;25.548;2023-12-07T05:47:31;4.35;;;2.83;;
77466;SDS011;66564;42.482;25.548;2023-12-07T05:49:57;5.90;;;3.00;;
77466;SDS011;66564;42.482;25.548;2023-12-07T05:52:25;4.53;;;2.75;;
77466;SDS011;66564;42.482;25.548;2023-12-07T05:54:50;4.63;;;2.88;;
77466;SDS011;66564;42.482;25.548;2023-12-07T05:57:16;3.38;;;2.67;;
77466;SDS011;66564;42.482;25.548;2023-12-07T05:59:41;6.63;;;2.90;;
77466;SDS011;66564;42.482;25.548;2023-12-07T06:02:08;4.10;;;2.75;;
77466;SDS011;66564;42.482;25.548;2023-12-07T06:04:34;4.88;;;3.30;;
77466;SDS011;66564;42.482;25.548;2023-12-07T06:06:59;5.05;;;2.65;;
77466;SDS011;66564;42.482;25.548;2023-12-07T06:09:25;5.38;;;3.00;;
77466;SDS011;66564;42.482;25.548;2023-12-07T06:11:50;21.73;;;4.45;;
77466;SDS011;66564;42.482;25.548;2023-12-07T06:14:16;17.10;;;3.38;;
77466;SDS011;66564;42.482;25.548;2023-12-07T06:16:42;6.18;;;3.47;;
77466;SDS011;66564;42.482;25.548;2023-12-07T06:19:07;4.78;;;2.85;;
77466;SDS011;66564;42.482;25.548;2023-12-07T06:21:33;4.97;;;3.15;;
77466;SDS011;66564;42.482;25.548;2023-12-07T06:23:59;5.25;;;3.13;;
77466;SDS011;66564;42.482;25.548;2023-12-07T06:26:25;8.70;;;3.70;;
77466;SDS011;66564;42.482;25.548;2023-12-07T06:28:51;9.82;;;3.58;;
77466;SDS011;66564;42.482;25.548;2023-12-07T06:31:16;9.60;;;3.05;;
77466;SDS011;66564;42.482;25.548;2023-12-07T06:33:46;12.38;;;3.55;;
77466;SDS011;66564;42.482;25.548;2023-12-07T06:36:17;5.53;;;3.53;;
77466;SDS011;66564;42.482;25.548;2023-12-07T06:38:44;7.95;;;4.07;;
77466;SDS011;66564;42.482;25.548;2023-12-07T06:41:09;6.95;;;4.22;;
77466;SDS011;66564;42.482;25.548;2023-12-07T06:43:35;7.20;;;4.10;;
77466;SDS011;66564;42.482;25.548;2023-12-07T06:46:01;7.28;;;4.13;;
77466;SDS011;66564;42.482;25.548;2023-12-07T06:48:26;15.05;;;4.35;;
77466;SDS011;66564;42.482;25.548;2023-12-07T06:50:51;8.13;;;4.57;;
77466;SDS011;66564;42.482;25.548;2023-12-07T06:53:17;6.80;;;4.22;;
77466;SDS011;66564;42.482;25.548;2023-12-07T06:55:43;9.00;;;4.65;;
77466;SDS011;66564;42.482;25.548;2023-12-07T06:58:09;8.23;;;5.38;;
77466;SDS011;66564;42.482;25.548;2023-12-07T07:00:35;9.77;;;6.32;;
77466;SDS011;66564;42.482;25.548;2023-12-07T07:03:01;13.02;;;5.88;;
77466;SDS011;66564;42.482;25.548;2023-12-07T07:05:26;12.45;;;7.18;;
77466;SDS011;66564;42.482;25.548;2023-12-07T07:07:52;10.57;;;5.90;;
77466;SDS011;66564;42.482;25.548;2023-12-07T07:10:17;10.05;;;5.53;;
77466;SDS011;66564;42.482;25.548;2023-12-07T07:12:43;9.60;;;5.97;;
77466;SDS011;66564;42.482;25.548;2023-12-07T07:15:08;11.18;;;6.10;;
77466;SDS011;66564;42.482;25.548;2023-12-07T07:17:34;8.45;;;5.57;;
77466;SDS011;66564;42.482;25.548;2023-12-07T07:20:00;8.48;;;5.22;;
77466;SDS011;66564;42.482;25.548;2023-12-07T07:22:26;9.23;;;5.15;;
77466;SDS011;66564;42.482;25.548;2023-12-07T07:24:51;8.50;;;4.97;;
77466;SDS011;66564;42.482;25.548;2023-12-07T07:27:17;9.30;;;5.75;;
77466;SDS011;66564;42.482;25.548;2023-12-07T07:29:43;14.80;;;7.78;;
77466;SDS011;66564;42.482;25.548;2023-12-07T07:32:09;11.05;;;6.13;;
77466;SDS011;66564;42.482;25.548;2023-12-07T07:34:35;11.00;;;6.35;;
77466;SDS011;66564;42.482;25.548;2023-12-07T07:37:01;13.38;;;6.97;;
77466;SDS011;66564;42.482;25.548;2023-12-07T07:39:27;21.40;;;7.72;;
77466;SDS011;66564;42.482;25.548;2023-12-07T07:41:52;11.75;;;6.35;;
77466;SDS011;66564;42.482;25.548;2023-12-07T07:44:17;9.20;;;6.20;;
77466;SDS011;66564;42.482;25.548;2023-12-07T07:46:43;14.02;;;6.05;;
77466;SDS011;66564;42.482;25.548;2023-12-07T07:49:08;8.55;;;5.13;;
77466;SDS011;66564;42.482;25.548;2023-12-07T07:51:34;20.38;;;5.75;;
77466;SDS011;66564;42.482;25.548;2023-12-07T07:53:59;14.43;;;5.28;;
77466;SDS011;66564;42.482;25.548;2023-12-07T07:56:25;11.13;;;5.55;;
77466;SDS011;66564;42.482;25.548;2023-12-07T07:58:50;8.57;;;4.82;;
77466;SDS011;66564;42.482;25.548;2023-12-07T08:01:16;7.13;;;4.20;;
77466;SDS011;66564;42.482;25.548;2023-12-07T08:03:41;9.25;;;5.72;;
77466;SDS011;66564;42.482;25.548;2023-12-07T08:06:07;9.02;;;4.65;;
77466;SDS011;66564;42.482;25.548;2023-12-07T08:08:34;7.97;;;5.18;;
77466;SDS011;66564;42.482;25.548;2023-12-07T08:10:59;8.05;;;4.68;;
77466;SDS011;66564;42.482;25.548;2023-12-07T08:13:26;8.45;;;5.05;;
77466;SDS011;66564;42.482;25.548;2023-12-07T08:15:52;7.97;;;4.40;;
77466;SDS011;66564;42.482;25.548;2023-12-07T08:18:18;6.85;;;4.30;;
77466;SDS011;66564;42.482;25.548;2023-12-07T08:20:43;7.82;;;5.35;;
77466;SDS011;66564;42.482;25.548;2023-12-07T08:23:09;9.93;;;5.32;;
77466;SDS011;66564;42.482;25.548;2023-12-07T08:25:35;7.93;;;5.38;;
77466;SDS011;66564;42.482;25.548;2023-12-07T08:28:03;8.43;;;4.50;;
77466;SDS011;66564;42.482;25.548;2023-12-07T08:30:28;9.25;;;4.63;;
77466;SDS011;66564;42.482;25.548;2023-12-07T08:32:55;8.02;;;5.07;;
77466;SDS011;66564;42.482;25.548;2023-12-07T08:35:20;9.25;;;4.88;;
77466;SDS011;66564;42.482;25.548;2023-12-07T08:37:46;7.28;;;4.43;;
77466;SDS011;66564;42.482;25.548;2023-12-07T08:40:13;6.93;;;3.97;;
77466;SDS011;66564;42.482;25.548;2023-12-07T08:42:40;8.65;;;4.25;;
77466;SDS011;66564;42.482;25.548;2023-12-07T08:45:08;7.53;;;4.30;;
77466;SDS011;66564;42.482;25.548;2023-12-07T08:47:34;9.35;;;4.15;;
77466;SDS011;66564;42.482;25.548;2023-12-07T08:50:00;8.23;;;4.90;;
77466;SDS011;66564;42.482;25.548;2023-12-07T08:52:28;7.97;;;4.60;;
77466;SDS011;66564;42.482;25.548;2023-12-07T08:54:54;10.93;;;5.65;;
77466;SDS011;66564;42.482;25.548;2023-12-07T08:57:19;9.10;;;5.22;;
77466;SDS011;66564;42.482;25.548;2023-12-07T08:59:44;8.38;;;5.00;;
77466;SDS011;66564;42.482;25.548;2023-12-07T09:02:10;7.70;;;4.85;;
77466;SDS011;66564;42.482;25.548;2023-12-07T09:04:37;9.48;;;4.68;;
77466;SDS011;66564;42.482;25.548;2023-12-07T09:07:03;8.15;;;5.07;;
77466;SDS011;66564;42.482;25.548;2023-12-07T09:09:29;9.65;;;5.05;;
77466;SDS011;66564;42.482;25.548;2023-12-07T09:11:54;8.30;;;4.35;;
77466;SDS011;66564;42.482;25.548;2023-12-07T09:14:20;8.43;;;4.57;;
77466;SDS011;66564;42.482;25.548;2023-12-07T09:16:45;7.88;;;4.45;;
77466;SDS011;66564;42.482;25.548;2023-12-07T09:19:11;9.70;;;5.82;;
77466;SDS011;66564;42.482;25.548;2023-12-07T09:21:38;8.68;;;5.80;;
77466;SDS011;66564;42.482;25.548;2023-12-07T09:24:04;12.15;;;5.47;;
77466;SDS011;66564;42.482;25.548;2023-12-07T09:26:31;8.82;;;5.10;;
77466;SDS011;66564;42.482;25.548;2023-12-07T09:29:06;10.18;;;4.93;;
77466;SDS011;66564;42.482;25.548;2023-12-07T09:31:31;8.88;;;4.45;;
77466;SDS011;66564;42.482;25.548;2023-12-07T09:33:57;9.10;;;4.93;;
77466;SDS011;66564;42.482;25.548;2023-12-07T09:36:22;12.57;;;5.88;;
77466;SDS011;66564;42.482;25.548;2023-12-07T09:38:49;10.00;;;5.05;;
77466;SDS011;66564;42.482;25.548;2023-12-07T09:41:14;9.70;;;4.65;;
77466;SDS011;66564;42.482;25.548;2023-12-07T09:43:40;9.85;;;4.93;;
77466;SDS011;66564;42.482;25.548;2023-12-07T09:46:05;8.45;;;4.30;;
77466;SDS011;66564;42.482;25.548;2023-12-07T09:48:31;13.20;;;5.15;;
77466;SDS011;66564;42.482;25.548;2023-12-07T09:50:57;8.93;;;4.22;;
77466;SDS011;66564;42.482;25.548;2023-12-07T09:53:26;8.70;;;4.60;;
77466;SDS011;66564;42.482;25.548;2023-12-07T09:55:54;9.32;;;4.88;;
77466;SDS011;66564;42.482;25.548;2023-12-07T09:58:19;8.45;;;4.90;;
77466;SDS011;66564;42.482;25.548;2023-12-07T10:00:46;10.57;;;5.93;;
77466;SDS011;66564;42.482;25.548;2023-12-07T10:03:19;8.93;;;4.10;;
77466;SDS011;66564;42.482;25.548;2023-12-07T10:05:59;12.35;;;5.10;;
77466;SDS011;66564;42.482;25.548;2023-12-07T10:08:30;9.90;;;5.68;;
77466;SDS011;66564;42.482;25.548;2023-12-07T10:11:06;8.77;;;3.97;;
77466;SDS011;66564;42.482;25.548;2023-12-07T10:13:33;8.25;;;4.28;;
77466;SDS011;66564;42.482;25.548;2023-12-07T10:16:09;11.63;;;5.15;;
77466;SDS011;66564;42.482;25.548;2023-12-07T10:18:36;9.25;;;4.75;;
77466;SDS011;66564;42.482;25.548;2023-12-07T10:21:02;8.30;;;4.20;;
77466;SDS011;66564;42.482;25.548;2023-12-07T10:23:28;7.18;;;4.35;;
77466;SDS011;66564;42.482;25.548;2023-12-07T10:25:57;6.75;;;4.30;;
77466;SDS011;66564;42.482;25.548;2023-12-07T10:28:24;8.77;;;4.40;;
77466;SDS011;66564;42.482;25.548;2023-12-07T10:30:49;8.18;;;4.43;;
77466;SDS011;66564;42.482;25.548;2023-12-07T10:33:15;9.90;;;4.35;;
77466;SDS011;66564;42.482;25.548;2023-12-07T10:35:42;135.60;;;55.85;;
77466;SDS011;66564;42.482;25.548;2023-12-07T10:38:08;91.50;;;41.03;;
77466;SDS011;66564;42.482;25.548;2023-12-07T10:40:34;96.70;;;44.13;;
77466;SDS011;66564;42.482;25.548;2023-12-07T10:43:04;76.25;;;26.70;;
77466;SDS011;66564;42.482;25.548;2023-12-07T10:45:30;10.23;;;4.55;;
77466;SDS011;66564;42.482;25.548;2023-12-07T10:47:58;9.52;;;5.30;;
77466;SDS011;66564;42.482;25.548;2023-12-07T10:50:31;12.90;;;5.47;;
77466;SDS011;66564;42.482;25.548;2023-12-07T10:53:02;13.95;;;4.45;;
77466;SDS011;66564;42.482;25.548;2023-12-07T10:55:33;9.15;;;5.00;;
77466;SDS011;66564;42.482;25.548;2023-12-07T10:58:11;6.97;;;4.57;;
77466;SDS011;66564;42.482;25.548;2023-12-07T11:00:40;12.45;;;5.18;;
77466;SDS011;66564;42.482;25.548;2023-12-07T11:03:11;9.70;;;4.90;;
77466;SDS011;66564;42.482;25.548;2023-12-07T11:05:45;6.78;;;4.32;;
77466;SDS011;66564;42.482;25.548;2023-12-07T11:08:21;11.82;;;4.60;;
77466;SDS011;66564;42.482;25.548;2023-12-07T11:11:02;11.23;;;4.38;;
77466;SDS011;66564;42.482;25.548;2023-12-07T11:13:36;7.35;;;4.60;;
77466;SDS011;66564;42.482;25.548;2023-12-07T11:16:03;8.38;;;5.38;;
77466;SDS011;66564;42.482;25.548;2023-12-07T11:18:29;7.38;;;4.10;;
77466;SDS011;66564;42.482;25.548;2023-12-07T11:20:55;9.88;;;5.32;;
77466;SDS011;66564;42.482;25.548;2023-12-07T11:23:21;12.20;;;6.10;;
77466;SDS011;66564;42.482;25.548;2023-12-07T11:25:47;7.05;;;4.60;;
77466;SDS011;66564;42.482;25.548;2023-12-07T11:28:15;8.07;;;4.50;;
77466;SDS011;66564;42.482;25.548;2023-12-07T11:30:41;9.15;;;4.20;;
77466;SDS011;66564;42.482;25.548;2023-12-07T11:33:09;7.40;;;4.72;;
77466;SDS011;66564;42.482;25.548;2023-12-07T11:36:02;8.07;;;4.95;;
77466;SDS011;66564;42.482;25.548;2023-12-07T11:38:31;6.93;;;4.28;;
77466;SDS011;66564;42.482;25.548;2023-12-07T11:40:56;6.55;;;4.25;;
77466;SDS011;66564;42.482;25.548;2023-12-07T11:46:09;7.22;;;5.07;;
77466;SDS011;66564;42.482;25.548;2023-12-07T11:48:35;6.25;;;4.10;;
77466;SDS011;66564;42.482;25.548;2023-12-07T11:51:02;7.88;;;4.88;;
77466;SDS011;66564;42.482;25.548;2023-12-07T11:53:30;7.60;;;4.65;;
77466;SDS011;66564;42.482;25.548;2023-12-07T11:55:59;6.70;;;4.03;;
77466;SDS011;66564;42.482;25.548;2023-12-07T11:58:29;6.68;;;3.97;;
77466;SDS011;66564;42.482;25.548;2023-12-07T12:00:55;9.38;;;6.13;;
77466;SDS011;66564;42.482;25.548;2023-12-07T12:03:24;11.23;;;6.13;;
77466;SDS011;66564;42.482;25.548;2023-12-07T12:05:50;6.97;;;4.97;;
77466;SDS011;66564;42.482;25.548;2023-12-07T12:08:16;6.25;;;4.07;;
77466;SDS011;66564;42.482;25.548;2023-12-07T12:10:43;6.05;;;3.95;;
77466;SDS011;66564;42.482;25.548;2023-12-07T12:13:08;5.72;;;3.97;;
77466;SDS011;66564;42.482;25.548;2023-12-07T12:15:35;7.10;;;4.50;;
77466;SDS011;66564;42.482;25.548;2023-12-07T12:18:03;6.18;;;4.25;;
77466;SDS011;66564;42.482;25.548;2023-12-07T12:20:29;6.40;;;3.90;;
77466;SDS011;66564;42.482;25.548;2023-12-07T12:22:56;7.43;;;4.50;;
77466;SDS011;66564;42.482;25.548;2023-12-07T12:25:22;6.97;;;4.55;;
77466;SDS011;66564;42.482;25.548;2023-12-07T12:27:54;7.03;;;4.28;;
77466;SDS011;66564;42.482;25.548;2023-12-07T12:30:20;6.63;;;4.13;;
77466;SDS011;66564;42.482;25.548;2023-12-07T12:32:50;6.53;;;4.50;;
77466;SDS011;66564;42.482;25.548;2023-12-07T12:35:16;24.27;;;5.65;;
77466;SDS011;66564;42.482;25.548;2023-12-07T12:37:42;7.22;;;4.28;;
77466;SDS011;66564;42.482;25.548;2023-12-07T12:40:10;6.53;;;4.22;;
77466;SDS011;66564;42.482;25.548;2023-12-07T12:42:36;8.15;;;5.30;;
77466;SDS011;66564;42.482;25.548;2023-12-07T12:45:03;10.25;;;5.80;;
77466;SDS011;66564;42.482;25.548;2023-12-07T12:47:29;10.45;;;5.28;;
77466;SDS011;66564;42.482;25.548;2023-12-07T12:49:55;11.48;;;6.35;;
77466;SDS011;66564;42.482;25.548;2023-12-07T12:52:23;11.15;;;5.45;;
77466;SDS011;66564;42.482;25.548;2023-12-07T12:54:52;12.50;;;5.75;;
77466;SDS011;66564;42.482;25.548;2023-12-07T12:57:20;8.98;;;5.57;;
77466;SDS011;66564;42.482;25.548;2023-12-07T12:59:46;10.68;;;4.95;;
77466;SDS011;66564;42.482;25.548;2023-12-07T13:02:13;8.00;;;4.57;;
77466;SDS011;66564;42.482;25.548;2023-12-07T13:04:41;9.30;;;4.50;;
77466;SDS011;66564;42.482;25.548;2023-12-07T13:07:07;9.02;;;4.95;;
77466;SDS011;66564;42.482;25.548;2023-12-07T13:09:32;6.28;;;4.57;;
77466;SDS011;66564;42.482;25.548;2023-12-07T13:11:58;7.80;;;4.72;;
77466;SDS011;66564;42.482;25.548;2023-12-07T13:14:24;8.00;;;4.32;;
77466;SDS011;66564;42.482;25.548;2023-12-07T13:16:50;8.32;;;4.88;;
77466;SDS011;66564;42.482;25.548;2023-12-07T13:19:15;6.97;;;4.40;;
77466;SDS011;66564;42.482;25.548;2023-12-07T13:21:41;8.82;;;5.43;;
77466;SDS011;66564;42.482;25.548;2023-12-07T13:24:07;8.13;;;4.90;;
77466;SDS011;66564;42.482;25.548;2023-12-07T13:26:37;7.35;;;4.90;;
77466;SDS011;66564;42.482;25.548;2023-12-07T13:29:06;6.97;;;4.80;;
77466;SDS011;66564;42.482;25.548;2023-12-07T13:31:33;10.25;;;5.20;;
77466;SDS011;66564;42.482;25.548;2023-12-07T13:33:58;10.10;;;6.00;;
77466;SDS011;66564;42.482;25.548;2023-12-07T13:36:24;8.10;;;5.15;;
77466;SDS011;66564;42.482;25.548;2023-12-07T13:38:52;8.77;;;5.45;;
77466;SDS011;66564;42.482;25.548;2023-12-07T13:41:17;7.30;;;5.10;;
77466;SDS011;66564;42.482;25.548;2023-12-07T13:43:43;6.43;;;4.13;;
77466;SDS011;66564;42.482;25.548;2023-12-07T13:46:09;7.05;;;3.90;;
77466;SDS011;66564;42.482;25.548;2023-12-07T13:48:35;6.40;;;3.70;;
77466;SDS011;66564;42.482;25.548;2023-12-07T13:51:01;6.63;;;3.53;;
77466;SDS011;66564;42.482;25.548;2023-12-07T13:53:27;6.18;;;3.65;;
77466;SDS011;66564;42.482;25.548;2023-12-07T13:55:53;6.78;;;3.95;;
77466;SDS011;66564;42.482;25.548;2023-12-07T13:58:18;7.65;;;4.03;;
77466;SDS011;66564;42.482;25.548;2023-12-07T14:00:44;27.38;;;5.38;;
77466;SDS011;66564;42.482;25.548;2023-12-07T14:03:11;7.13;;;4.55;;
77466;SDS011;66564;42.482;25.548;2023-12-07T14:05:37;9.05;;;4.00;;
77466;SDS011;66564;42.482;25.548;2023-12-07T14:08:04;8.07;;;4.65;;
77466;SDS011;66564;42.482;25.548;2023-12-07T14:10:30;7.65;;;4.35;;
77466;SDS011;66564;42.482;25.548;2023-12-07T14:12:55;9.55;;;3.75;;
77466;SDS011;66564;42.482;25.548;2023-12-07T14:15:21;9.18;;;4.63;;
77466;SDS011;66564;42.482;25.548;2023-12-07T14:17:46;14.45;;;6.80;;
77466;SDS011;66564;42.482;25.548;2023-12-07T14:20:12;15.20;;;7.55;;
77466;SDS011;66564;42.482;25.548;2023-12-07T14:22:39;10.02;;;5.72;;
77466;SDS011;66564;42.482;25.548;2023-12-07T14:25:04;10.82;;;6.05;;